Time;durP1;ratioP1;P1;durP2;ratioP2;P2;SDS_P1;SDS_P2;PMS_P1;PMS_P2;Temp;Humidity;BMP_temperature;BMP_pressure;BME280_temperature;BME280_humidity;BME280_pressure;Samples;Min_cycle;Max_cycle;Signal;HPM_P1;HPM_P2
2023/01/23 00:01:23;;;;;;;9.00;4.30;;;;;;;;;;105175;1267;63557;-46
2023/01/23 00:03:50;;;;;;;6.70;3.30;;;;;;;;;;108706;1257;58842;-47
2023/01/23 00:06:17;;;;;;;5.30;3.30;;;;;;;;;;108681;1257;61954;-46
2023/01/23 00:08:44;;;;;;;6.90;4.20;;;;;;;;;;108796;1257;58817;-45
2023/01/23 00:11:11;;;;;;;7.10;3.80;;;;;;;;;;108793;1257;60064;-47
2023/01/23 00:13:38;;;;;;;10.80;4.60;;;;;;;;;;108860;1257;63636;-45
2023/01/23 00:16:08;;;;;;;8.70;5.10;;;;;;;;;;108869;1257;58822;-45
2023/01/23 00:19:51;;;;;;;9.40;5.20;;;;;;;;;;102585;1292;602059;-48
2023/01/23 00:22:18;;;;;;;7.40;4.00;;;;;;;;;;104678;1263;60233;-48
2023/01/23 00:24:45;;;;;;;7.50;3.90;;;;;;;;;;104465;1269;60130;-47
2023/01/23 00:27:11;;;;;;;13.30;5.50;;;;;;;;;;104391;1263;61468;-47
2023/01/23 00:29:38;;;;;;;15.30;5.50;;;;;;;;;;104310;1269;60231;-46
2023/01/23 00:32:05;;;;;;;12.40;6.10;;;;;;;;;;105218;1260;62093;-47
2023/01/23 00:34:32;;;;;;;12.90;6.30;;;;;;;;;;105385;1258;150025;-46
2023/01/23 00:36:59;;;;;;;13.60;5.90;;;;;;;;;;105431;1253;60222;-50
2023/01/23 00:39:25;;;;;;;11.40;5.40;;;;;;;;;;105444;1253;61615;-48
2023/01/23 00:41:52;;;;;;;11.30;5.70;;;;;;;;;;105187;1259;60120;-49
2023/01/23 00:44:19;;;;;;;12.00;6.50;;;;;;;;;;105129;1259;61874;-49
2023/01/23 00:46:46;;;;;;;9.60;5.30;;;;;;;;;;105125;1259;60866;-47
2023/01/23 00:49:13;;;;;;;13.40;6.20;;;;;;;;;;105258;1256;60870;-46
2023/01/23 00:51:43;;;;;;;12.20;6.50;;;;;;;;;;105406;1253;63326;-47
2023/01/23 00:54:09;;;;;;;11.60;5.30;;;;;;;;;;105438;1259;60727;-47
2023/01/23 00:56:36;;;;;;;10.00;5.70;;;;;;;;;;105478;1254;61838;-47
2023/01/23 00:59:03;;;;;;;10.90;5.60;;;;;;;;;;105379;1259;60942;-46
2023/01/23 01:01:31;;;;;;;11.00;5.00;;;;;;;;;;105030;1254;60729;-43
2023/01/23 01:03:58;;;;;;;9.80;6.00;;;;;;;;;;105509;1253;62278;-46
2023/01/23 01:06:25;;;;;;;13.40;6.50;;;;;;;;;;105042;1253;60773;-47
2023/01/23 01:08:51;;;;;;;11.40;5.70;;;;;;;;;;104944;1253;63176;-46
2023/01/23 01:11:18;;;;;;;19.00;7.70;;;;;;;;;;105319;1259;61185;-47
2023/01/23 01:13:44;;;;;;;12.80;6.20;;;;;;;;;;105383;1256;60667;-47
2023/01/23 01:16:11;;;;;;;13.80;5.70;;;;;;;;;;105357;1260;63463;-45
2023/01/23 01:18:38;;;;;;;11.60;5.90;;;;;;;;;;105314;1256;61401;-45
2023/01/23 01:21:08;;;;;;;10.40;4.80;;;;;;;;;;104888;1260;61693;-46
2023/01/23 01:23:35;;;;;;;11.60;4.90;;;;;;;;;;104952;1256;60770;-45
2023/01/23 01:26:02;;;;;;;9.50;4.60;;;;;;;;;;104985;1260;60761;-46
2023/01/23 01:28:29;;;;;;;8.60;4.20;;;;;;;;;;105086;1254;63572;-47
2023/01/23 01:30:56;;;;;;;9.40;4.10;;;;;;;;;;105366;1260;60759;-47
2023/01/23 01:33:27;;;;;;;10.70;4.60;;;;;;;;;;105275;1256;62389;-45
2023/01/23 01:35:55;;;;;;;9.40;4.40;;;;;;;;;;105530;1256;60832;-47
2023/01/23 01:38:22;;;;;;;7.40;3.70;;;;;;;;;;105248;1261;60134;-46
2023/01/23 01:40:49;;;;;;;7.70;3.50;;;;;;;;;;105273;1256;62681;-45
2023/01/23 01:43:19;;;;;;;6.90;4.10;;;;;;;;;;104957;1260;60812;-44
2023/01/23 01:46:05;;;;;;;10.80;4.20;;;;;;;;;;105073;1256;61577;-47
2023/01/23 01:48:34;;;;;;;4.70;2.50;;;;;;;;;;105191;1259;60870;-45
2023/01/23 01:51:01;;;;;;;7.20;3.60;;;;;;;;;;105645;1259;60689;-46
2023/01/23 01:53:27;;;;;;;5.10;2.40;;;;;;;;;;105859;1260;63592;-44
2023/01/23 01:55:54;;;;;;;4.90;2.70;;;;;;;;;;105361;1260;60724;-48
2023/01/23 01:58:21;;;;;;;3.70;1.80;;;;;;;;;;105023;1256;62730;-45
2023/01/23 02:00:47;;;;;;;5.10;2.00;;;;;;;;;;104892;1257;60723;-46
2023/01/23 02:03:15;;;;;;;3.50;1.50;;;;;;;;;;105610;1256;60852;-48
2023/01/23 02:05:43;;;;;;;2.90;1.40;;;;;;;;;;104845;1256;62567;-47
2023/01/23 02:08:13;;;;;;;5.20;1.40;;;;;;;;;;106954;1256;60735;-46
2023/01/23 02:10:41;;;;;;;4.50;1.90;;;;;;;;;;106745;1259;62897;-49
2023/01/23 02:13:31;;;;;;;5.50;1.80;;;;;;;;;;105221;1256;60872;-48
2023/01/23 02:16:00;;;;;;;3.20;1.40;;;;;;;;;;105416;1257;60729;-49
2023/01/23 02:18:27;;;;;;;2.60;1.60;;;;;;;;;;105962;1256;63773;-48
2023/01/23 02:20:54;;;;;;;5.00;2.40;;;;;;;;;;104759;1256;61288;-47
2023/01/23 02:23:27;;;;;;;2.90;1.70;;;;;;;;;;104785;1262;63104;-49
2023/01/23 02:25:56;;;;;;;3.50;2.00;;;;;;;;;;105082;1257;61098;-49
2023/01/23 02:28:24;;;;;;;3.40;1.70;;;;;;;;;;105158;1256;60779;-48
2023/01/23 02:30:51;;;;;;;4.80;2.10;;;;;;;;;;105471;1257;63605;-46
2023/01/23 02:33:19;;;;;;;3.40;1.50;;;;;;;;;;105345;1260;60738;-48
2023/01/23 02:35:47;;;;;;;3.40;2.10;;;;;;;;;;105013;1259;63039;-47
2023/01/23 02:38:14;;;;;;;5.30;2.40;;;;;;;;;;104724;1256;60724;-49
2023/01/23 02:40:41;;;;;;;4.40;2.10;;;;;;;;;;104632;1256;60902;-48
2023/01/23 02:43:10;;;;;;;6.30;2.40;;;;;;;;;;105062;1260;63591;-48
2023/01/23 02:45:40;;;;;;;2.80;1.80;;;;;;;;;;105997;1257;60849;-47
2023/01/23 02:48:07;;;;;;;5.70;2.30;;;;;;;;;;105192;1262;62974;-47
2023/01/23 02:50:35;;;;;;;6.40;1.60;;;;;;;;;;105313;1256;61226;-47
2023/01/23 02:53:02;;;;;;;4.30;2.20;;;;;;;;;;105219;1257;60736;-47
2023/01/23 02:55:29;;;;;;;5.10;2.10;;;;;;;;;;105067;1261;63373;-48
2023/01/23 03:00:14;;;;;;;2.50;1.50;;;;;;;;;;108804;1256;58934;-47
2023/01/23 03:00:42;;;;;;;4.30;2.10;;;;;;;;;;105767;1263;63007;-46
2023/01/23 03:03:09;;;;;;;4.40;2.10;;;;;;;;;;108876;1256;58658;-48
2023/01/23 03:05:37;;;;;;;4.20;2.30;;;;;;;;;;108912;1258;58677;-48
2023/01/23 03:08:04;;;;;;;5.80;2.70;;;;;;;;;;107557;1257;63474;-48
2023/01/23 03:10:31;;;;;;;7.00;3.10;;;;;;;;;;108890;1256;58737;-47
2023/01/23 03:13:00;;;;;;;4.40;2.40;;;;;;;;;;108862;1256;62023;-49
2023/01/23 03:15:27;;;;;;;4.20;2.90;;;;;;;;;;107112;1260;60092;-45
2023/01/23 03:17:54;;;;;;;4.90;2.50;;;;;;;;;;106875;1256;60780;-48
2023/01/23 03:20:23;;;;;;;4.40;2.10;;;;;;;;;;105199;1256;63568;-47
2023/01/23 03:22:49;;;;;;;2.20;1.50;;;;;;;;;;105118;1260;61318;-47
2023/01/23 03:25:16;;;;;;;3.40;1.30;;;;;;;;;;105280;1256;63306;-47
2023/01/23 03:27:42;;;;;;;2.50;1.50;;;;;;;;;;105394;1261;60690;-46
2023/01/23 03:30:15;;;;;;;2.90;1.50;;;;;;;;;;105210;1256;60734;-48
2023/01/23 03:32:42;;;;;;;3.60;1.80;;;;;;;;;;107227;1256;63870;-46
2023/01/23 03:35:09;;;;;;;3.90;1.50;;;;;;;;;;104830;1256;60857;-47
2023/01/23 03:37:36;;;;;;;2.80;1.40;;;;;;;;;;105274;1256;62701;-47
2023/01/23 03:42:48;;;;;;;3.10;1.40;;;;;;;;;;105140;1256;60815;-48
2023/01/23 03:45:21;;;;;;;3.40;0.90;;;;;;;;;;106236;1256;63267;-47
2023/01/23 03:47:47;;;;;;;1.80;0.90;;;;;;;;;;105243;1262;60562;-46
2023/01/23 03:50:15;;;;;;;2.20;1.30;;;;;;;;;;105319;1260;62995;-49
2023/01/23 03:52:42;;;;;;;2.20;1.10;;;;;;;;;;105208;1261;60783;-46
2023/01/23 03:55:09;;;;;;;4.60;2.00;;;;;;;;;;104913;1257;60764;-47
2023/01/23 03:57:37;;;;;;;5.60;2.00;;;;;;;;;;104993;1260;63535;-46
2023/01/23 04:00:16;;;;;;;3.70;2.40;;;;;;;;;;104820;1256;60530;-48
2023/01/23 04:02:47;;;;;;;6.50;3.50;;;;;;;;;;106830;1256;61484;-47
2023/01/23 04:05:14;;;;;;;8.10;4.20;;;;;;;;;;105211;1260;60820;-46
2023/01/23 04:07:41;;;;;;;8.20;3.50;;;;;;;;;;105353;1261;60666;-48
2023/01/23 04:10:08;;;;;;;8.80;4.40;;;;;;;;;;105307;1257;64378;-49
2023/01/23 04:12:40;;;;;;;7.10;3.40;;;;;;;;;;104994;1261;60721;-47
2023/01/23 04:15:08;;;;;;;6.80;3.20;;;;;;;;;;104958;1257;61773;-48
2023/01/23 04:17:34;;;;;;;5.40;2.60;;;;;;;;;;105121;1257;60839;-49
2023/01/23 04:20:02;;;;;;;5.50;3.30;;;;;;;;;;105252;1257;60727;-48
2023/01/23 04:22:29;;;;;;;6.40;3.40;;;;;;;;;;107782;1257;63475;-46
2023/01/23 04:24:56;;;;;;;7.10;3.20;;;;;;;;;;105365;1262;60832;-48
2023/01/23 04:27:22;;;;;;;6.80;3.00;;;;;;;;;;105254;1260;62737;-46
2023/01/23 04:29:49;;;;;;;6.30;3.20;;;;;;;;;;105092;1257;61681;-49
2023/01/23 04:32:16;;;;;;;7.00;3.20;;;;;;;;;;105008;1257;60786;-45
2023/01/23 04:34:45;;;;;;;6.00;3.40;;;;;;;;;;104997;1260;64480;-46
2023/01/23 04:37:11;;;;;;;11.10;4.00;;;;;;;;;;105290;1260;61693;-46
2023/01/23 04:39:38;;;;;;;9.50;4.90;;;;;;;;;;105804;1260;62967;-48
2023/01/23 04:42:05;;;;;;;10.10;4.30;;;;;;;;;;105284;1260;61740;-45
2023/01/23 04:45:04;;;;;;;8.00;4.00;;;;;;;;;;105111;1254;61499;-43
2023/01/23 04:48:03;;;;;;;5.20;2.60;;;;;;;;;;104842;1256;63288;-44
2023/01/23 04:50:32;;;;;;;7.10;2.30;;;;;;;;;;105491;1254;61718;-45
2023/01/23 04:52:58;;;;;;;7.50;3.10;;;;;;;;;;104927;1256;63054;-45
2023/01/23 04:55:27;;;;;;;5.50;2.70;;;;;;;;;;105007;1256;61851;-48
2023/01/23 04:57:55;;;;;;;7.50;3.10;;;;;;;;;;105519;1256;61555;-47
2023/01/23 05:00:23;;;;;;;5.50;2.80;;;;;;;;;;105357;1261;64195;-48
2023/01/23 05:02:50;;;;;;;8.30;3.30;;;;;;;;;;105363;1257;61665;-48
2023/01/23 05:05:19;;;;;;;5.80;2.80;;;;;;;;;;105071;1255;62748;-46
2023/01/23 05:07:48;;;;;;;6.10;3.20;;;;;;;;;;104877;1255;61643;-44
2023/01/23 05:10:15;;;;;;;5.70;3.50;;;;;;;;;;104682;1262;61699;-48
2023/01/23 05:12:42;;;;;;;5.30;3.30;;;;;;;;;;105074;1261;64838;-48
2023/01/23 05:15:09;;;;;;;8.40;3.20;;;;;;;;;;105312;1257;61683;-47
2023/01/23 05:17:38;;;;;;;6.90;4.10;;;;;;;;;;105492;1261;62739;-48
2023/01/23 05:20:05;;;;;;;6.40;3.90;;;;;;;;;;105285;1260;61734;-48
2023/01/23 05:22:32;;;;;;;8.70;4.40;;;;;;;;;;105736;1254;62100;-48
2023/01/23 05:24:59;;;;;;;9.10;3.70;;;;;;;;;;104964;1256;64466;-49
2023/01/23 05:27:27;;;;;;;9.00;4.20;;;;;;;;;;106500;1257;61654;-48
2023/01/23 05:29:54;;;;;;;8.40;4.10;;;;;;;;;;105575;1261;62903;-45
2023/01/23 05:32:23;;;;;;;8.50;4.50;;;;;;;;;;104942;1255;61671;-47
2023/01/23 05:35:04;;;;;;;10.30;3.60;;;;;;;;;;105280;1257;61794;-47
2023/01/23 05:37:31;;;;;;;8.40;4.10;;;;;;;;;;105368;1256;64723;-44
2023/01/23 05:40:01;;;;;;;10.40;4.20;;;;;;;;;;105179;1262;61732;-46
2023/01/23 05:42:48;;;;;;;9.50;4.30;;;;;;;;;;104968;1259;63375;-47
2023/01/23 05:45:53;;;;;;;8.00;3.60;;;;;;;;;;104116;1265;60730;-45
2023/01/23 05:48:31;;;;;;;7.70;3.50;;;;;;;;;;104314;1262;61575;-48
2023/01/23 05:51:00;;;;;;;6.40;3.60;;;;;;;;;;104609;1262;64431;-47
2023/01/23 05:53:27;;;;;;;10.60;4.50;;;;;;;;;;108972;1254;60542;-47
2023/01/23 05:55:54;;;;;;;9.00;3.80;;;;;;;;;;108932;1255;63058;-48
2023/01/23 05:58:21;;;;;;;10.10;4.80;;;;;;;;;;105936;1262;61762;-48
2023/01/23 06:01:08;;;;;;;9.70;5.10;;;;;;;;;;105269;1262;61755;-48
2023/01/23 06:07:04;;;;;;;10.10;5.20;;;;;;;;;;104724;1289;603470;-81
2023/01/23 06:09:31;;;;;;;10.40;5.10;;;;;;;;;;103836;1272;60158;-46
2023/01/23 06:11:59;;;;;;;14.00;6.10;;;;;;;;;;103799;1266;60246;-47
2023/01/23 06:14:26;;;;;;;13.00;8.10;;;;;;;;;;104146;1267;62843;-46
2023/01/23 06:16:53;;;;;;;11.00;6.80;;;;;;;;;;104202;1272;60199;-45
2023/01/23 06:19:20;;;;;;;11.70;6.40;;;;;;;;;;104295;1270;61897;-47
2023/01/23 06:21:47;;;;;;;10.90;6.90;;;;;;;;;;103530;1263;121935;-47
2023/01/23 06:24:14;;;;;;;13.50;7.20;;;;;;;;;;104052;1263;60225;-48
2023/01/23 06:26:41;;;;;;;11.80;5.50;;;;;;;;;;104438;1264;62606;-49
2023/01/23 06:29:07;;;;;;;8.20;4.70;;;;;;;;;;104136;1263;60907;-47
2023/01/23 06:31:34;;;;;;;7.80;4.30;;;;;;;;;;104329;1269;62983;-47
2023/01/23 06:34:01;;;;;;;9.50;4.80;;;;;;;;;;104314;1266;60786;-47
2023/01/23 06:36:31;;;;;;;4.50;2.50;;;;;;;;;;104438;1264;60843;-48
2023/01/23 06:38:57;;;;;;;6.20;3.50;;;;;;;;;;104854;1266;63817;-49
2023/01/23 06:41:31;;;;;;;7.00;3.70;;;;;;;;;;105060;1263;60818;-48
2023/01/23 06:44:01;;;;;;;6.90;3.90;;;;;;;;;;104883;1269;62766;-48
2023/01/23 06:46:27;;;;;;;5.80;3.00;;;;;;;;;;104643;1266;60830;-48
2023/01/23 06:48:55;;;;;;;4.20;2.50;;;;;;;;;;104328;1268;60836;-48
2023/01/23 06:51:21;;;;;;;8.60;3.70;;;;;;;;;;104313;1266;63760;-48
2023/01/23 06:53:48;;;;;;;5.60;3.40;;;;;;;;;;104310;1269;60943;-48
2023/01/23 06:56:15;;;;;;;7.30;3.60;;;;;;;;;;104637;1267;63196;-48
2023/01/23 06:58:42;;;;;;;5.00;3.20;;;;;;;;;;104549;1270;60740;-48
2023/01/23 07:01:15;;;;;;;11.00;4.30;;;;;;;;;;104647;1263;60773;-47
2023/01/23 07:04:02;;;;;;;6.80;4.00;;;;;;;;;;104788;1269;63885;-48
2023/01/23 07:06:30;;;;;;;5.80;3.50;;;;;;;;;;108318;1263;59829;-49
2023/01/23 07:08:56;;;;;;;5.50;3.10;;;;;;;;;;105151;1269;62855;-47
2023/01/23 07:11:23;;;;;;;8.70;4.70;;;;;;;;;;104026;1266;61474;-47
2023/01/23 07:13:50;;;;;;;7.30;3.50;;;;;;;;;;104633;1264;60799;-47
2023/01/23 07:16:17;;;;;;;7.40;3.30;;;;;;;;;;104602;1265;62595;-48
2023/01/23 07:18:44;;;;;;;5.10;2.90;;;;;;;;;;104961;1254;60866;-48
2023/01/23 07:21:11;;;;;;;7.40;4.10;;;;;;;;;;105196;1259;62922;-47
2023/01/23 07:23:37;;;;;;;6.00;3.50;;;;;;;;;;104781;1254;60837;-49
2023/01/23 07:26:08;;;;;;;5.90;3.40;;;;;;;;;;105057;1256;60757;-46
2023/01/23 07:28:38;;;;;;;6.50;3.80;;;;;;;;;;104710;1253;63812;-49
2023/01/23 07:31:04;;;;;;;6.20;3.70;;;;;;;;;;104860;1253;60735;-49
2023/01/23 07:33:31;;;;;;;6.10;3.20;;;;;;;;;;105045;1257;63014;-48
2023/01/23 07:35:58;;;;;;;8.30;3.70;;;;;;;;;;104845;1256;60863;-48
2023/01/23 07:38:24;;;;;;;6.50;3.30;;;;;;;;;;105141;1254;60821;-48
2023/01/23 07:40:51;;;;;;;7.00;3.70;;;;;;;;;;105209;1254;62592;-49
2023/01/23 07:43:18;;;;;;;7.20;4.70;;;;;;;;;;104916;1256;60735;-47
2023/01/23 07:45:45;;;;;;;9.60;5.20;;;;;;;;;;104817;1260;63011;-49
2023/01/23 07:48:12;;;;;;;8.50;4.10;;;;;;;;;;104907;1259;60858;-46
2023/01/23 07:50:38;;;;;;;5.90;4.40;;;;;;;;;;104880;1259;60869;-48
2023/01/23 07:53:05;;;;;;;7.30;4.80;;;;;;;;;;105020;1253;63583;-47
2023/01/23 07:55:32;;;;;;;9.80;5.90;;;;;;;;;;105003;1254;60949;-48
2023/01/23 07:57:58;;;;;;;8.30;3.70;;;;;;;;;;104903;1256;61627;-48
2023/01/23 08:00:25;;;;;;;6.10;4.40;;;;;;;;;;105260;1256;60616;-48
2023/01/23 08:02:55;;;;;;;7.00;5.00;;;;;;;;;;104851;1254;60989;-50
2023/01/23 08:05:22;;;;;;;8.00;3.80;;;;;;;;;;104640;1254;62577;-48
2023/01/23 08:07:48;;;;;;;7.20;4.70;;;;;;;;;;104680;1253;61090;-47
2023/01/23 08:10:17;;;;;;;7.90;4.30;;;;;;;;;;109037;1253;62892;-49
2023/01/23 08:12:44;;;;;;;6.60;4.50;;;;;;;;;;106622;1259;60671;-53
2023/01/23 08:15:11;;;;;;;5.40;3.90;;;;;;;;;;105242;1259;60697;-49
2023/01/23 08:17:38;;;;;;;3.80;2.70;;;;;;;;;;105122;1254;63579;-48
2023/01/23 08:20:05;;;;;;;5.60;3.10;;;;;;;;;;105036;1253;60597;-46
2023/01/23 08:22:32;;;;;;;6.10;4.20;;;;;;;;;;104858;1256;61711;-48
2023/01/23 08:24:59;;;;;;;7.90;4.30;;;;;;;;;;104961;1254;62172;-47
2023/01/23 08:27:25;;;;;;;8.00;5.00;;;;;;;;;;104964;1254;61066;-48
2023/01/23 08:29:52;;;;;;;8.90;4.30;;;;;;;;;;104659;1253;62266;-47
2023/01/23 08:32:19;;;;;;;7.10;4.60;;;;;;;;;;104944;1254;61498;-48
2023/01/23 08:34:46;;;;;;;5.60;3.80;;;;;;;;;;104920;1254;61908;-49
2023/01/23 08:37:13;;;;;;;5.50;3.10;;;;;;;;;;104882;1259;60827;-49
2023/01/23 08:39:39;;;;;;;5.60;3.80;;;;;;;;;;104702;1254;60731;-48
2023/01/23 08:42:06;;;;;;;4.50;3.20;;;;;;;;;;104888;1259;63801;-50
2023/01/23 08:44:34;;;;;;;3.60;2.30;;;;;;;;;;104642;1259;60703;-48
2023/01/23 08:47:02;;;;;;;6.00;3.20;;;;;;;;;;104836;1256;64625;-49
2023/01/23 08:49:28;;;;;;;5.30;3.40;;;;;;;;;;105407;1254;60728;-49
2023/01/23 08:51:56;;;;;;;4.30;2.80;;;;;;;;;;105410;1254;61174;-44
2023/01/23 08:54:23;;;;;;;3.80;3.20;;;;;;;;;;105398;1254;62263;-48
2023/01/23 08:56:50;;;;;;;4.70;3.00;;;;;;;;;;106012;1261;60763;-47
2023/01/23 08:59:16;;;;;;;4.00;3.00;;;;;;;;;;104987;1259;61771;-49
2023/01/23 09:01:45;;;;;;;6.80;2.50;;;;;;;;;;105056;1254;60738;-49
2023/01/23 09:04:12;;;;;;;4.40;2.60;;;;;;;;;;104935;1253;60702;-49
2023/01/23 09:06:38;;;;;;;4.70;2.90;;;;;;;;;;105237;1256;63434;-48
2023/01/23 09:09:05;;;;;;;4.70;2.60;;;;;;;;;;104658;1256;60795;-48
2023/01/23 09:11:32;;;;;;;4.90;3.10;;;;;;;;;;104737;1257;61710;-49
2023/01/23 09:13:58;;;;;;;8.00;5.10;;;;;;;;;;104747;1258;60979;-48
2023/01/23 09:16:25;;;;;;;6.40;4.30;;;;;;;;;;105029;1254;60697;-50
2023/01/23 09:18:53;;;;;;;6.30;4.90;;;;;;;;;;105117;1259;63889;-48
2023/01/23 09:21:20;;;;;;;7.20;5.20;;;;;;;;;;105014;1259;60853;-47
2023/01/23 09:23:46;;;;;;;6.70;5.90;;;;;;;;;;105116;1254;62904;-51
2023/01/23 09:26:14;;;;;;;6.30;5.00;;;;;;;;;;104881;1255;60884;-46
2023/01/23 09:28:41;;;;;;;7.40;5.90;;;;;;;;;;105704;1254;60735;-48
2023/01/23 09:31:09;;;;;;;7.60;5.30;;;;;;;;;;105487;1253;63245;-49
2023/01/23 09:33:36;;;;;;;8.50;4.20;;;;;;;;;;105430;1260;60794;-47
2023/01/23 09:36:03;;;;;;;3.50;2.00;;;;;;;;;;105266;1258;62561;-50
2023/01/23 09:38:32;;;;;;;2.40;1.50;;;;;;;;;;105400;1259;61893;-49
2023/01/23 09:40:59;;;;;;;3.10;2.30;;;;;;;;;;104728;1254;60934;-47
2023/01/23 09:43:40;;;;;;;6.30;3.50;;;;;;;;;;104832;1258;63581;-51
2023/01/23 09:46:11;;;;;;;5.30;3.80;;;;;;;;;;105513;1255;60795;-49
2023/01/23 09:48:48;;;;;;;6.20;4.40;;;;;;;;;;105291;1254;63062;-49
2023/01/23 09:51:25;;;;;;;4.80;3.60;;;;;;;;;;105285;1258;60769;-47
2023/01/23 09:53:53;;;;;;;7.30;3.60;;;;;;;;;;106003;1254;60729;-49
2023/01/23 09:56:23;;;;;;;4.80;2.70;;;;;;;;;;106275;1257;63495;-48
2023/01/23 09:58:56;;;;;;;4.00;2.30;;;;;;;;;;104692;1254;60943;-49
2023/01/23 10:01:23;;;;;;;3.40;2.40;;;;;;;;;;104727;1259;62942;-49
2023/01/23 10:03:49;;;;;;;3.20;2.30;;;;;;;;;;105098;1256;61020;-47
2023/01/23 10:06:22;;;;;;;2.90;2.00;;;;;;;;;;106746;1254;60817;-47
2023/01/23 10:08:51;;;;;;;5.00;3.20;;;;;;;;;;105334;1254;62729;-48
2023/01/23 10:11:18;;;;;;;5.80;2.80;;;;;;;;;;105291;1259;60764;-48
2023/01/23 10:13:46;;;;;;;3.80;2.70;;;;;;;;;;104895;1256;62914;-49
2023/01/23 10:16:16;;;;;;;2.60;2.10;;;;;;;;;;104784;1259;61570;-47
2023/01/23 10:18:43;;;;;;;3.60;2.70;;;;;;;;;;104785;1259;61521;-48
2023/01/23 10:21:58;;;;;;;7.50;3.90;;;;;;;;;;101556;1289;602358;-48
2023/01/23 10:24:47;;;;;;;6.80;6.10;;;;;;;;;;108372;1263;59405;-49
2023/01/23 10:27:25;;;;;;;8.60;5.60;;;;;;;;;;108380;1263;58239;-49
2023/01/23 10:29:56;;;;;;;9.50;5.70;;;;;;;;;;108373;1264;62858;-49
2023/01/23 10:32:24;;;;;;;8.70;5.30;;;;;;;;;;108442;1263;58609;-49
2023/01/23 10:34:51;;;;;;;7.60;5.10;;;;;;;;;;108270;1260;146001;-49
2023/01/23 10:37:24;;;;;;;7.40;5.20;;;;;;;;;;107296;1261;60302;-47
2023/01/23 10:39:58;;;;;;;7.60;5.90;;;;;;;;;;104365;1260;60309;-46
2023/01/23 10:42:25;;;;;;;8.00;6.90;;;;;;;;;;104452;1263;62624;-45
2023/01/23 10:44:52;;;;;;;6.60;5.40;;;;;;;;;;104216;1263;60131;-48
2023/01/23 10:47:36;;;;;;;5.20;4.70;;;;;;;;;;104459;1261;63028;-48
2023/01/23 10:50:06;;;;;;;8.30;5.20;;;;;;;;;;104381;1263;61023;-49
2023/01/23 10:52:36;;;;;;;8.50;5.90;;;;;;;;;;104178;1261;60852;-48
2023/01/23 10:55:03;;;;;;;8.80;5.20;;;;;;;;;;104260;1266;63601;-48
2023/01/23 10:57:33;;;;;;;5.30;4.30;;;;;;;;;;104216;1264;60964;-49
2023/01/23 11:00:07;;;;;;;4.60;4.20;;;;;;;;;;108429;1263;61664;-48
2023/01/23 11:02:34;;;;;;;8.00;4.10;;;;;;;;;;108048;1260;60052;-48
2023/01/23 11:05:02;;;;;;;7.10;4.40;;;;;;;;;;105373;1263;60070;-47
2023/01/23 11:07:29;;;;;;;6.30;4.10;;;;;;;;;;104411;1261;62387;-48
2023/01/23 11:09:56;;;;;;;5.80;4.80;;;;;;;;;;104282;1263;60912;-47
2023/01/23 11:12:27;;;;;;;6.70;4.20;;;;;;;;;;104444;1266;63110;-48
2023/01/23 11:15:14;;;;;;;7.50;5.00;;;;;;;;;;104941;1261;60760;-49
2023/01/23 11:17:40;;;;;;;8.10;4.90;;;;;;;;;;104646;1256;60093;-47
2023/01/23 11:20:30;;;;;;;11.00;5.60;;;;;;;;;;104809;1254;62150;-48
2023/01/23 11:23:07;;;;;;;5.10;3.80;;;;;;;;;;104484;1260;60623;-47
2023/01/23 11:25:38;;;;;;;6.30;4.80;;;;;;;;;;104744;1260;61932;-47
2023/01/23 11:28:25;;;;;;;8.30;5.90;;;;;;;;;;105219;1255;60878;-47
2023/01/23 11:30:53;;;;;;;11.10;7.40;;;;;;;;;;104801;1259;60739;-49
2023/01/23 11:33:51;;;;;;;16.00;9.60;;;;;;;;;;104851;1258;63789;-49
2023/01/23 11:36:18;;;;;;;12.10;8.00;;;;;;;;;;105292;1254;60885;-50
2023/01/23 11:39:20;;;;;;;9.80;6.50;;;;;;;;;;104882;1254;61991;-48
2023/01/23 11:41:47;;;;;;;8.40;5.70;;;;;;;;;;104441;1268;60778;-48
2023/01/23 11:44:15;;;;;;;6.10;4.50;;;;;;;;;;104885;1263;60729;-46
2023/01/23 11:46:59;;;;;;;10.10;7.40;;;;;;;;;;105370;1259;63517;-47
2023/01/23 11:49:45;;;;;;;14.20;7.50;;;;;;;;;;104823;1259;60703;-49
2023/01/23 11:52:30;;;;;;;13.00;7.90;;;;;;;;;;104792;1259;63108;-48
2023/01/23 11:55:00;;;;;;;18.50;10.00;;;;;;;;;;104802;1260;60700;-48
2023/01/23 11:57:32;;;;;;;14.30;8.80;;;;;;;;;;104791;1254;61884;-47
2023/01/23 12:00:20;;;;;;;16.50;10.10;;;;;;;;;;104918;1254;62565;-49
2023/01/23 12:03:11;;;;;;;18.10;10.30;;;;;;;;;;106529;1257;60017;-49
2023/01/23 12:05:58;;;;;;;23.30;11.70;;;;;;;;;;104601;1260;63714;-49
2023/01/23 12:08:51;;;;;;;15.70;8.10;;;;;;;;;;104855;1254;60918;-49
2023/01/23 12:11:19;;;;;;;13.60;8.30;;;;;;;;;;104673;1260;60718;-49
2023/01/23 12:13:49;;;;;;;11.60;7.10;;;;;;;;;;106572;1254;62694;-49
2023/01/23 12:16:39;;;;;;;8.60;7.70;;;;;;;;;;104846;1254;60679;-49
2023/01/23 12:19:08;;;;;;;15.10;9.50;;;;;;;;;;104578;1254;62076;-49
2023/01/23 12:21:37;;;;;;;20.50;12.40;;;;;;;;;;104860;1260;60846;-49
2023/01/23 12:24:07;;;;;;;27.50;17.30;;;;;;;;;;105127;1254;60780;-49
2023/01/23 12:26:34;;;;;;;20.40;12.70;;;;;;;;;;104779;1253;63277;-49
2023/01/23 12:29:04;;;;;;;20.60;14.30;;;;;;;;;;104736;1254;60748;-50
2023/01/23 12:31:54;;;;;;;21.60;15.20;;;;;;;;;;104843;1255;62878;-49
2023/01/23 12:34:30;;;;;;;15.70;11.60;;;;;;;;;;104850;1254;61286;-49
2023/01/23 12:36:56;;;;;;;18.40;11.20;;;;;;;;;;104861;1258;60730;-49
2023/01/23 12:39:42;;;;;;;15.80;10.50;;;;;;;;;;105008;1255;63727;-49
2023/01/23 12:42:10;;;;;;;20.60;12.00;;;;;;;;;;104950;1257;60764;-50
2023/01/23 12:44:36;;;;;;;25.80;14.40;;;;;;;;;;104978;1257;61679;-51
2023/01/23 12:47:10;;;;;;;22.60;12.30;;;;;;;;;;104750;1256;60843;-50
2023/01/23 12:49:51;;;;;;;24.50;13.20;;;;;;;;;;104553;1260;60927;-49
2023/01/23 12:52:25;;;;;;;23.00;13.10;;;;;;;;;;104527;1260;62350;-50
2023/01/23 12:54:56;;;;;;;19.00;11.00;;;;;;;;;;107757;1254;60932;-50
2023/01/23 12:57:39;;;;;;;18.60;10.70;;;;;;;;;;105217;1257;60728;-50
2023/01/23 13:00:35;;;;;;;17.00;10.50;;;;;;;;;;104563;1257;61477;-50
2023/01/23 13:03:11;;;;;;;22.80;11.20;;;;;;;;;;104689;1254;60731;-50
2023/01/23 13:05:43;;;;;;;19.60;11.00;;;;;;;;;;104558;1260;63612;-49
2023/01/23 13:08:16;;;;;;;24.40;11.90;;;;;;;;;;104609;1254;60703;-50
2023/01/23 13:14:00;;;;;;;25.50;12.40;;;;;;;;;;108513;1254;58919;-48
2023/01/23 13:16:28;;;;;;;20.90;12.00;;;;;;;;;;108990;1254;58665;-48
2023/01/23 13:22:03;;;;;;;22.40;13.90;;;;;;;;;;107729;1253;60804;-45
2023/01/23 13:27:34;;;;;;;25.30;12.20;;;;;;;;;;108943;1254;58638;-49
2023/01/23 13:30:03;;;;;;;23.30;11.50;;;;;;;;;;108985;1257;58802;-49
2023/01/23 13:32:30;;;;;;;18.80;11.60;;;;;;;;;;108457;1254;63585;-48
2023/01/23 13:34:57;;;;;;;28.20;12.30;;;;;;;;;;106844;1254;61892;-47
2023/01/23 13:37:27;;;;;;;19.30;9.80;;;;;;;;;;104961;1260;62149;-48
2023/01/23 13:40:01;;;;;;;21.20;10.90;;;;;;;;;;105173;1260;60732;-48
2023/01/23 13:42:32;;;;;;;21.70;10.80;;;;;;;;;;108830;1254;58669;-49
2023/01/23 13:45:14;;;;;;;21.90;11.70;;;;;;;;;;105743;1254;63482;-47
2023/01/23 13:50:49;;;;;;;15.10;8.90;;;;;;;;;;104471;1266;62824;-49
2023/01/23 13:56:37;;;;;;;18.20;9.80;;;;;;;;;;103919;1274;61032;-49
2023/01/23 13:59:23;;;;;;;32.10;15.20;;;;;;;;;;103305;1277;63724;-48
2023/01/23 14:05:25;;;;;;;29.80;14.30;;;;;;;;;;104341;1288;60833;-49
2023/01/23 14:08:13;;;;;;;19.20;10.30;;;;;;;;;;101959;1297;60918;-49
2023/01/23 14:10:54;;;;;;;26.40;12.00;;;;;;;;;;101451;1298;60802;-47
2023/01/23 14:13:35;;;;;;;34.20;12.40;;;;;;;;;;101144;1300;62545;-49
2023/01/23 14:17:26;;;;;;;31.50;14.70;;;;;;;;;;101737;1289;600826;-47
2023/01/23 14:20:12;;;;;;;27.80;13.50;;;;;;;;;;103904;1270;60282;-49
2023/01/23 14:22:53;;;;;;;27.00;12.20;;;;;;;;;;103265;1277;60210;-49
2023/01/23 14:25:20;;;;;;;24.70;11.30;;;;;;;;;;104144;1281;62924;-49
2023/01/23 14:27:47;;;;;;;26.00;11.40;;;;;;;;;;103320;1282;60136;-50
2023/01/23 14:30:27;;;;;;;20.70;11.60;;;;;;;;;;103669;1280;97921;-46
2023/01/23 14:32:54;;;;;;;21.00;11.60;;;;;;;;;;104145;1279;60266;-46
2023/01/23 14:35:22;;;;;;;21.30;10.20;;;;;;;;;;103630;1280;60165;-49
2023/01/23 14:37:49;;;;;;;22.80;12.70;;;;;;;;;;103672;1283;61491;-48
2023/01/23 14:40:16;;;;;;;26.40;12.20;;;;;;;;;;103874;1280;60253;-48
2023/01/23 14:43:00;;;;;;;17.10;9.30;;;;;;;;;;104310;1280;61866;-48
2023/01/23 14:45:30;;;;;;;19.60;9.90;;;;;;;;;;103935;1273;60927;-48
2023/01/23 14:47:58;;;;;;;18.90;9.80;;;;;;;;;;104665;1265;60792;-48
2023/01/23 14:50:32;;;;;;;16.20;8.20;;;;;;;;;;108626;1266;63666;-50
2023/01/23 14:52:59;;;;;;;26.40;11.50;;;;;;;;;;108670;1266;58594;-50
2023/01/23 14:55:34;;;;;;;25.90;12.30;;;;;;;;;;107175;1261;63309;-49
2023/01/23 14:58:01;;;;;;;19.10;10.90;;;;;;;;;;104579;1267;60897;-48
2023/01/23 15:00:27;;;;;;;24.90;11.30;;;;;;;;;;104285;1262;60746;-47
2023/01/23 15:02:55;;;;;;;24.00;12.10;;;;;;;;;;104436;1260;63603;-49
2023/01/23 15:05:22;;;;;;;25.50;11.00;;;;;;;;;;105058;1267;60808;-47
2023/01/23 15:07:53;;;;;;;24.50;10.30;;;;;;;;;;104744;1267;63253;-49
2023/01/23 15:10:21;;;;;;;20.80;10.60;;;;;;;;;;104389;1264;60908;-48